KEVW/EVW METAR and TAF weather

Enter ICAO airport designator
Station Type Date Time Source
KEVW METAR 2021/02/25 00:53 UTC NOAA

KEVW 250053Z AUTO 36011KT 10SM OVC070 M07/M13 A3015 RMK AO2 SLP257 T10671128


Station Type Date Time Source
KEVW Decoded METAR 2021/02/25 00:53 UTC NOAA

EVANSTON-UINTA COUNTY FIELD, WY, United States (KEVW) 41-16N 111-02W 2177M
Feb 24, 2021 - 07:53 PM EST / 2021.02.25 0053 UTC
Wind: from the N (360 degrees) at 13 MPH (11 KT):0
Visibility: 10 mile(s):0
Sky conditions: overcast
Temperature: 19.9 F (-6.7 C)
Windchill: 6 F (-14 C):1
Dew Point: 9.0 F (-12.8 C)
Relative Humidity: 61%
Pressure (altimeter): 30.15 in. Hg (1020 hPa)
ob: KEVW 250053Z AUTO 36011KT 10SM OVC070 M07/M13 A3015 RMK AO2 SLP257 T10671128
cycle: 1

Station Type Date Time Source
KEVW TAF 2021/02/24 18:42 UTC NOAA

TAF KEVW 241737Z 2418/2518 05006KT 3SM -SN BR OVC015
FM242000 03008KT P6SM VCSH BKN040
FM250000 04007KT P6SM SCT040 BKN060

Example: see airport list